| State | Oklahoma | Latest | Good (550 cfs) | |
| River | Washita River | Rating | Observed | Estimated |
| Updated | 2026-05-05 5:30 (1 hour ago) | Flood - The river is flooding. Obstacles can be treacherous or deadly. The river should be avoided at this stage for casual trips and definitely for the inexperienced. Trips should be attempted only with protective gear and equipment.Flood | (none) | 12019 |
| Discharge | 550 cfs (median: 1090 cfs) | High - The river is high and potentially dangerous, especially for the young and / or inexperienced. Normal stream obstacles are sometimes difficult to navigate. Extended distances can be attempted, but canoe travel may not be advisable.High | (none) | 4099 |
| Height | 7.94 feet | Good - Conditions are ideal for a canoe or kayak. Boats typically will drag on fewer than one-quarter of riffles, if at all, and portages are unnecessary or rare. Normal float lengths can be attempted without a problem.Good | 120 | 1600 |
| Trend | Falling (falling over 24 hours) | Low - River is low but can still be floated. Some riffles are okay but most come with significant dragging and might need a portage. Float lengths should be reduced to accommodate low flow, dragging, and portages.Low | (none) | 1814 |
| USGS | USGS Site ( Duck Duck Go Maps) | Poor - River is too low to float comfortably. Most or all riffles will drag or must be portaged and some obstacles (such as slick shelf rock) cause undue problems. Avoid the river at this stage for casual paddling trips.Poor | (none) | 280 |
A total of 3 rows are displayed.
| Miles | 27 |
| Trips | 3 |
| People | 3 |
| Dates | 3 |
| Years | 3 |
| Months | 3 |
| Rows | 3 |
| Sources | 1 |
BLG - Bluegill
CCF - Channel Catfish
CP - Chain Pickerel
FWD - Freshwater Drum
GSF - Green Sunfish
KSB - Kentucky Spotted Bass
LMB - Largemouth Bass
LSF - Longear Sunfish
RB - Rock Bass / Goggle Eye
RSF - Redear Sunfish
RT - Rainbow Trout
SMB - Smallmouth Bass
WB - White Bass
WF - Whitefish
WL - WalleyeThe classic River Trips application is still available for use. It is updated with the new system using a data retrofit. It is no longer maintained. The original River Trips application is no longer updated (as of 1 Dec 2016) but can be checked for errors or for the condition of the data before it was converted to the new system.
| Observation | Height | Discharge | Maximum Discharge | Minimum Discharge | Mean Discharge | P05 | P10 | P20 | P25 | P50 (Median) | P75 | P80 | P90 | P95 |
|---|---|---|---|---|---|---|---|---|---|---|---|---|---|---|
| 2026-05-05 05:30 | 7.94 | 550 | 40100 (1990) | 106 (1971) | 3490 | 163 | 298 | 569 | 695 | 1090 | 4030 | 6300 | 8370 | 13000 |
| 2026-05-05 04:30 | 7.95 | 554 | 40100 (1990) | 106 (1971) | 3490 | 163 | 298 | 569 | 695 | 1090 | 4030 | 6300 | 8370 | 13000 |
| 2026-05-05 03:30 | 7.94 | 550 | 40100 (1990) | 106 (1971) | 3490 | 163 | 298 | 569 | 695 | 1090 | 4030 | 6300 | 8370 | 13000 |
| 2026-05-05 02:30 | 7.93 | 546 | 40100 (1990) | 106 (1971) | 3490 | 163 | 298 | 569 | 695 | 1090 | 4030 | 6300 | 8370 | 13000 |
| 2026-05-05 01:30 | 7.93 | 546 | 40100 (1990) | 106 (1971) | 3490 | 163 | 298 | 569 | 695 | 1090 | 4030 | 6300 | 8370 | 13000 |
| 2026-05-05 00:30 | 7.94 | 550 | 40100 (1990) | 106 (1971) | 3490 | 163 | 298 | 569 | 695 | 1090 | 4030 | 6300 | 8370 | 13000 |
| 2026-05-04 23:30 | 7.94 | 550 | 40100 (1990) | 106 (1971) | 3490 | 163 | 298 | 569 | 695 | 1090 | 4030 | 6300 | 8370 | 13000 |
| 2026-05-04 22:30 | 7.94 | 550 | 79600 (1990) | 110 (1971) | 4500 | 221 | 307 | 651 | 750 | 1150 | 4520 | 6950 | 11800 | 13400 |
| 2026-05-04 21:30 | 7.95 | 554 | 79600 (1990) | 110 (1971) | 4500 | 221 | 307 | 651 | 750 | 1150 | 4520 | 6950 | 11800 | 13400 |
| 2026-05-04 20:30 | 7.95 | 554 | 79600 (1990) | 110 (1971) | 4500 | 221 | 307 | 651 | 750 | 1150 | 4520 | 6950 | 11800 | 13400 |
| 2026-05-04 19:30 | 7.94 | 550 | 79600 (1990) | 110 (1971) | 4500 | 221 | 307 | 651 | 750 | 1150 | 4520 | 6950 | 11800 | 13400 |
| 2026-05-04 18:30 | 7.94 | 550 | 79600 (1990) | 110 (1971) | 4500 | 221 | 307 | 651 | 750 | 1150 | 4520 | 6950 | 11800 | 13400 |
| 2026-05-04 17:30 | 7.95 | 554 | 79600 (1990) | 110 (1971) | 4500 | 221 | 307 | 651 | 750 | 1150 | 4520 | 6950 | 11800 | 13400 |
| 2026-05-04 16:30 | 7.95 | 554 | 79600 (1990) | 110 (1971) | 4500 | 221 | 307 | 651 | 750 | 1150 | 4520 | 6950 | 11800 | 13400 |
| 2026-05-04 15:30 | 7.96 | 559 | 79600 (1990) | 110 (1971) | 4500 | 221 | 307 | 651 | 750 | 1150 | 4520 | 6950 | 11800 | 13400 |
| 2026-05-04 14:30 | 7.96 | 559 | 79600 (1990) | 110 (1971) | 4500 | 221 | 307 | 651 | 750 | 1150 | 4520 | 6950 | 11800 | 13400 |
| 2026-05-04 13:30 | 7.97 | 563 | 79600 (1990) | 110 (1971) | 4500 | 221 | 307 | 651 | 750 | 1150 | 4520 | 6950 | 11800 | 13400 |
| 2026-05-04 12:30 | 7.98 | 567 | 79600 (1990) | 110 (1971) | 4500 | 221 | 307 | 651 | 750 | 1150 | 4520 | 6950 | 11800 | 13400 |
| 2026-05-04 11:30 | 7.98 | 567 | 79600 (1990) | 110 (1971) | 4500 | 221 | 307 | 651 | 750 | 1150 | 4520 | 6950 | 11800 | 13400 |
| 2026-05-04 10:30 | 8.00 | 576 | 79600 (1990) | 110 (1971) | 4500 | 221 | 307 | 651 | 750 | 1150 | 4520 | 6950 | 11800 | 13400 |
| 2026-05-04 09:30 | 8.01 | 581 | 79600 (1990) | 110 (1971) | 4500 | 221 | 307 | 651 | 750 | 1150 | 4520 | 6950 | 11800 | 13400 |
| 2026-05-04 08:30 | 8.00 | 576 | 79600 (1990) | 110 (1971) | 4500 | 221 | 307 | 651 | 750 | 1150 | 4520 | 6950 | 11800 | 13400 |
| 2026-05-04 07:30 | 8.00 | 576 | 79600 (1990) | 110 (1971) | 4500 | 221 | 307 | 651 | 750 | 1150 | 4520 | 6950 | 11800 | 13400 |
| 2026-05-04 06:30 | 8.00 | 576 | 79600 (1990) | 110 (1971) | 4500 | 221 | 307 | 651 | 750 | 1150 | 4520 | 6950 | 11800 | 13400 |
| 2026-05-04 05:30 | 8.01 | 581 | 79600 (1990) | 110 (1971) | 4500 | 221 | 307 | 651 | 750 | 1150 | 4520 | 6950 | 11800 | 13400 |
| 2026-05-04 04:30 | 8.01 | 581 | 79600 (1990) | 110 (1971) | 4500 | 221 | 307 | 651 | 750 | 1150 | 4520 | 6950 | 11800 | 13400 |
| 2026-05-04 03:30 | 8.01 | 581 | 79600 (1990) | 110 (1971) | 4500 | 221 | 307 | 651 | 750 | 1150 | 4520 | 6950 | 11800 | 13400 |
| 2026-05-04 02:30 | 8.01 | 581 | 79600 (1990) | 110 (1971) | 4500 | 221 | 307 | 651 | 750 | 1150 | 4520 | 6950 | 11800 | 13400 |
| 2026-05-04 01:30 | 8.01 | 581 | 79600 (1990) | 110 (1971) | 4500 | 221 | 307 | 651 | 750 | 1150 | 4520 | 6950 | 11800 | 13400 |
| 2026-05-04 00:30 | 8.00 | 576 | 79600 (1990) | 110 (1971) | 4500 | 221 | 307 | 651 | 750 | 1150 | 4520 | 6950 | 11800 | 13400 |
| 2026-05-03 23:30 | 8.00 | 576 | 79600 (1990) | 110 (1971) | 4500 | 221 | 307 | 651 | 750 | 1150 | 4520 | 6950 | 11800 | 13400 |
| 2026-05-03 22:30 | 8.01 | 581 | 94400 (1990) | 122 (1971) | 5040 | 267 | 319 | 641 | 844 | 1190 | 4550 | 8010 | 12500 | 16300 |
| 2026-05-03 21:30 | 8.01 | 581 | 94400 (1990) | 122 (1971) | 5040 | 267 | 319 | 641 | 844 | 1190 | 4550 | 8010 | 12500 | 16300 |
| 2026-05-03 20:30 | 8.01 | 581 | 94400 (1990) | 122 (1971) | 5040 | 267 | 319 | 641 | 844 | 1190 | 4550 | 8010 | 12500 | 16300 |
| 2026-05-03 19:30 | 8.01 | 581 | 94400 (1990) | 122 (1971) | 5040 | 267 | 319 | 641 | 844 | 1190 | 4550 | 8010 | 12500 | 16300 |
| 2026-05-03 18:30 | 8.01 | 581 | 94400 (1990) | 122 (1971) | 5040 | 267 | 319 | 641 | 844 | 1190 | 4550 | 8010 | 12500 | 16300 |
| 2026-05-03 17:30 | 8.01 | 581 | 94400 (1990) | 122 (1971) | 5040 | 267 | 319 | 641 | 844 | 1190 | 4550 | 8010 | 12500 | 16300 |
| 2026-05-03 16:30 | 8.01 | 581 | 94400 (1990) | 122 (1971) | 5040 | 267 | 319 | 641 | 844 | 1190 | 4550 | 8010 | 12500 | 16300 |
| 2026-05-03 15:30 | 8.02 | 585 | 94400 (1990) | 122 (1971) | 5040 | 267 | 319 | 641 | 844 | 1190 | 4550 | 8010 | 12500 | 16300 |
| 2026-05-03 14:30 | 8.03 | 590 | 94400 (1990) | 122 (1971) | 5040 | 267 | 319 | 641 | 844 | 1190 | 4550 | 8010 | 12500 | 16300 |
| 2026-05-03 13:30 | 8.04 | 594 | 94400 (1990) | 122 (1971) | 5040 | 267 | 319 | 641 | 844 | 1190 | 4550 | 8010 | 12500 | 16300 |
| 2026-05-03 12:30 | 8.05 | 599 | 94400 (1990) | 122 (1971) | 5040 | 267 | 319 | 641 | 844 | 1190 | 4550 | 8010 | 12500 | 16300 |
| 2026-05-03 11:30 | 8.06 | 603 | 94400 (1990) | 122 (1971) | 5040 | 267 | 319 | 641 | 844 | 1190 | 4550 | 8010 | 12500 | 16300 |
| 2026-05-03 10:30 | 8.06 | 603 | 94400 (1990) | 122 (1971) | 5040 | 267 | 319 | 641 | 844 | 1190 | 4550 | 8010 | 12500 | 16300 |
| 2026-05-03 09:30 | 8.08 | 612 | 94400 (1990) | 122 (1971) | 5040 | 267 | 319 | 641 | 844 | 1190 | 4550 | 8010 | 12500 | 16300 |
| 2026-05-03 08:30 | 8.09 | 617 | 94400 (1990) | 122 (1971) | 5040 | 267 | 319 | 641 | 844 | 1190 | 4550 | 8010 | 12500 | 16300 |
| 2026-05-03 07:30 | 8.08 | 612 | 94400 (1990) | 122 (1971) | 5040 | 267 | 319 | 641 | 844 | 1190 | 4550 | 8010 | 12500 | 16300 |
| 2026-05-03 06:30 | 8.08 | 612 | 94400 (1990) | 122 (1971) | 5040 | 267 | 319 | 641 | 844 | 1190 | 4550 | 8010 | 12500 | 16300 |
| 2026-05-03 05:30 | 8.08 | 612 | 94400 (1990) | 122 (1971) | 5040 | 267 | 319 | 641 | 844 | 1190 | 4550 | 8010 | 12500 | 16300 |
| 2026-05-03 04:30 | 8.08 | 612 | 94400 (1990) | 122 (1971) | 5040 | 267 | 319 | 641 | 844 | 1190 | 4550 | 8010 | 12500 | 16300 |
| 2026-05-03 03:30 | 8.08 | 612 | 94400 (1990) | 122 (1971) | 5040 | 267 | 319 | 641 | 844 | 1190 | 4550 | 8010 | 12500 | 16300 |
| 2026-05-03 02:30 | 8.08 | 612 | 94400 (1990) | 122 (1971) | 5040 | 267 | 319 | 641 | 844 | 1190 | 4550 | 8010 | 12500 | 16300 |
| 2026-05-03 01:30 | 8.08 | 612 | 94400 (1990) | 122 (1971) | 5040 | 267 | 319 | 641 | 844 | 1190 | 4550 | 8010 | 12500 | 16300 |
| 2026-05-03 00:30 | 8.09 | 617 | 94400 (1990) | 122 (1971) | 5040 | 267 | 319 | 641 | 844 | 1190 | 4550 | 8010 | 12500 | 16300 |
| 2026-05-02 23:30 | 8.09 | 617 | 94400 (1990) | 122 (1971) | 5040 | 267 | 319 | 641 | 844 | 1190 | 4550 | 8010 | 12500 | 16300 |
| 2026-05-02 22:30 | 8.09 | 617 | 40800 (1990) | 137 (2014) | 4000 | 173 | 309 | 503 | 644 | 1230 | 4270 | 5290 | 12000 | 17900 |
| 2026-05-02 21:30 | 8.09 | 617 | 40800 (1990) | 137 (2014) | 4000 | 173 | 309 | 503 | 644 | 1230 | 4270 | 5290 | 12000 | 17900 |
| 2026-05-02 20:30 | 8.10 | 622 | 40800 (1990) | 137 (2014) | 4000 | 173 | 309 | 503 | 644 | 1230 | 4270 | 5290 | 12000 | 17900 |
| 2026-05-02 19:30 | 8.10 | 622 | 40800 (1990) | 137 (2014) | 4000 | 173 | 309 | 503 | 644 | 1230 | 4270 | 5290 | 12000 | 17900 |
| 2026-05-02 18:30 | 8.11 | 626 | 40800 (1990) | 137 (2014) | 4000 | 173 | 309 | 503 | 644 | 1230 | 4270 | 5290 | 12000 | 17900 |
| 2026-05-02 17:30 | 8.11 | 626 | 40800 (1990) | 137 (2014) | 4000 | 173 | 309 | 503 | 644 | 1230 | 4270 | 5290 | 12000 | 17900 |
| 2026-05-02 16:30 | 8.12 | 631 | 40800 (1990) | 137 (2014) | 4000 | 173 | 309 | 503 | 644 | 1230 | 4270 | 5290 | 12000 | 17900 |
| 2026-05-02 15:30 | 8.13 | 636 | 40800 (1990) | 137 (2014) | 4000 | 173 | 309 | 503 | 644 | 1230 | 4270 | 5290 | 12000 | 17900 |
| 2026-05-02 14:30 | 8.14 | 641 | 40800 (1990) | 137 (2014) | 4000 | 173 | 309 | 503 | 644 | 1230 | 4270 | 5290 | 12000 | 17900 |
| 2026-05-02 13:30 | 8.15 | 645 | 40800 (1990) | 137 (2014) | 4000 | 173 | 309 | 503 | 644 | 1230 | 4270 | 5290 | 12000 | 17900 |
| 2026-05-02 12:30 | 8.16 | 650 | 40800 (1990) | 137 (2014) | 4000 | 173 | 309 | 503 | 644 | 1230 | 4270 | 5290 | 12000 | 17900 |
| 2026-05-02 11:30 | 8.17 | 655 | 40800 (1990) | 137 (2014) | 4000 | 173 | 309 | 503 | 644 | 1230 | 4270 | 5290 | 12000 | 17900 |
| 2026-05-02 10:30 | 8.18 | 660 | 40800 (1990) | 137 (2014) | 4000 | 173 | 309 | 503 | 644 | 1230 | 4270 | 5290 | 12000 | 17900 |
| 2026-05-02 09:30 | 8.18 | 660 | 40800 (1990) | 137 (2014) | 4000 | 173 | 309 | 503 | 644 | 1230 | 4270 | 5290 | 12000 | 17900 |
| 2026-05-02 08:30 | 8.18 | 660 | 40800 (1990) | 137 (2014) | 4000 | 173 | 309 | 503 | 644 | 1230 | 4270 | 5290 | 12000 | 17900 |
| 2026-05-02 07:30 | 8.18 | 660 | 40800 (1990) | 137 (2014) | 4000 | 173 | 309 | 503 | 644 | 1230 | 4270 | 5290 | 12000 | 17900 |
| 2026-05-02 06:30 | 8.19 | 664 | 40800 (1990) | 137 (2014) | 4000 | 173 | 309 | 503 | 644 | 1230 | 4270 | 5290 | 12000 | 17900 |
| 2026-05-02 05:30 | 8.19 | 664 | 40800 (1990) | 137 (2014) | 4000 | 173 | 309 | 503 | 644 | 1230 | 4270 | 5290 | 12000 | 17900 |
| 2026-05-02 04:30 | 8.20 | 669 | 40800 (1990) | 137 (2014) | 4000 | 173 | 309 | 503 | 644 | 1230 | 4270 | 5290 | 12000 | 17900 |
| 2026-05-02 03:30 | 8.20 | 669 | 40800 (1990) | 137 (2014) | 4000 | 173 | 309 | 503 | 644 | 1230 | 4270 | 5290 | 12000 | 17900 |
| 2026-05-02 02:30 | 8.21 | 674 | 40800 (1990) | 137 (2014) | 4000 | 173 | 309 | 503 | 644 | 1230 | 4270 | 5290 | 12000 | 17900 |
| 2026-05-02 01:30 | 8.23 | 684 | 40800 (1990) | 137 (2014) | 4000 | 173 | 309 | 503 | 644 | 1230 | 4270 | 5290 | 12000 | 17900 |
| 2026-05-02 00:30 | 8.24 | 689 | 40800 (1990) | 137 (2014) | 4000 | 173 | 309 | 503 | 644 | 1230 | 4270 | 5290 | 12000 | 17900 |
| 2026-05-01 23:30 | 8.26 | 699 | 40800 (1990) | 137 (2014) | 4000 | 173 | 309 | 503 | 644 | 1230 | 4270 | 5290 | 12000 | 17900 |
| 2026-05-01 22:30 | 8.28 | 709 | 26800 (1974) | 140 (1964) | 3800 | 185 | 316 | 419 | 501 | 1310 | 3440 | 6140 | 13500 | 18100 |
| 2026-05-01 21:30 | 8.30 | 719 | 26800 (1974) | 140 (1964) | 3800 | 185 | 316 | 419 | 501 | 1310 | 3440 | 6140 | 13500 | 18100 |
| 2026-05-01 20:30 | 8.31 | 724 | 26800 (1974) | 140 (1964) | 3800 | 185 | 316 | 419 | 501 | 1310 | 3440 | 6140 | 13500 | 18100 |
| 2026-05-01 19:30 | 8.33 | 734 | 26800 (1974) | 140 (1964) | 3800 | 185 | 316 | 419 | 501 | 1310 | 3440 | 6140 | 13500 | 18100 |
| 2026-05-01 18:30 | 8.33 | 734 | 26800 (1974) | 140 (1964) | 3800 | 185 | 316 | 419 | 501 | 1310 | 3440 | 6140 | 13500 | 18100 |
| 2026-05-01 17:30 | 8.33 | 734 | 26800 (1974) | 140 (1964) | 3800 | 185 | 316 | 419 | 501 | 1310 | 3440 | 6140 | 13500 | 18100 |
| 2026-05-01 16:30 | 8.35 | 745 | 26800 (1974) | 140 (1964) | 3800 | 185 | 316 | 419 | 501 | 1310 | 3440 | 6140 | 13500 | 18100 |
| 2026-05-01 15:30 | 8.34 | 739 | 26800 (1974) | 140 (1964) | 3800 | 185 | 316 | 419 | 501 | 1310 | 3440 | 6140 | 13500 | 18100 |
| 2026-05-01 14:30 | 8.35 | 745 | 26800 (1974) | 140 (1964) | 3800 | 185 | 316 | 419 | 501 | 1310 | 3440 | 6140 | 13500 | 18100 |
| 2026-05-01 13:30 | 8.36 | 750 | 26800 (1974) | 140 (1964) | 3800 | 185 | 316 | 419 | 501 | 1310 | 3440 | 6140 | 13500 | 18100 |
| 2026-05-01 12:30 | 8.37 | 755 | 26800 (1974) | 140 (1964) | 3800 | 185 | 316 | 419 | 501 | 1310 | 3440 | 6140 | 13500 | 18100 |
| 2026-05-01 11:30 | 8.37 | 755 | 26800 (1974) | 140 (1964) | 3800 | 185 | 316 | 419 | 501 | 1310 | 3440 | 6140 | 13500 | 18100 |
| 2026-05-01 10:30 | 8.38 | 760 | 26800 (1974) | 140 (1964) | 3800 | 185 | 316 | 419 | 501 | 1310 | 3440 | 6140 | 13500 | 18100 |
| 2026-05-01 09:30 | 8.39 | 765 | 26800 (1974) | 140 (1964) | 3800 | 185 | 316 | 419 | 501 | 1310 | 3440 | 6140 | 13500 | 18100 |
| 2026-05-01 08:30 | 8.40 | 771 | 26800 (1974) | 140 (1964) | 3800 | 185 | 316 | 419 | 501 | 1310 | 3440 | 6140 | 13500 | 18100 |
| 2026-05-01 07:30 | 8.40 | 771 | 26800 (1974) | 140 (1964) | 3800 | 185 | 316 | 419 | 501 | 1310 | 3440 | 6140 | 13500 | 18100 |
| 2026-05-01 06:30 | 8.41 | 776 | 26800 (1974) | 140 (1964) | 3800 | 185 | 316 | 419 | 501 | 1310 | 3440 | 6140 | 13500 | 18100 |
| 2026-05-01 05:30 | 8.41 | 776 | 26800 (1974) | 140 (1964) | 3800 | 185 | 316 | 419 | 501 | 1310 | 3440 | 6140 | 13500 | 18100 |
| 2026-05-01 04:30 | 8.42 | 781 | 26800 (1974) | 140 (1964) | 3800 | 185 | 316 | 419 | 501 | 1310 | 3440 | 6140 | 13500 | 18100 |
| 2026-05-01 03:30 | 8.42 | 781 | 26800 (1974) | 140 (1964) | 3800 | 185 | 316 | 419 | 501 | 1310 | 3440 | 6140 | 13500 | 18100 |
| 2026-05-01 02:30 | 8.42 | 781 | 26800 (1974) | 140 (1964) | 3800 | 185 | 316 | 419 | 501 | 1310 | 3440 | 6140 | 13500 | 18100 |
| 2026-05-01 01:30 | 8.42 | 781 | 26800 (1974) | 140 (1964) | 3800 | 185 | 316 | 419 | 501 | 1310 | 3440 | 6140 | 13500 | 18100 |
| 2026-05-01 00:30 | 8.43 | 787 | 26800 (1974) | 140 (1964) | 3800 | 185 | 316 | 419 | 501 | 1310 | 3440 | 6140 | 13500 | 18100 |
| 2026-04-30 23:30 | 8.43 | 787 | 26800 (1974) | 140 (1964) | 3800 | 185 | 316 | 419 | 501 | 1310 | 3440 | 6140 | 13500 | 18100 |
| 2026-04-30 22:30 | 8.43 | 787 | 27400 (2009) | 157 (2014) | 3640 | 194 | 307 | 455 | 510 | 1340 | 3320 | 4810 | 9740 | 20400 |
| 2026-04-30 21:30 | 8.42 | 781 | 27400 (2009) | 157 (2014) | 3640 | 194 | 307 | 455 | 510 | 1340 | 3320 | 4810 | 9740 | 20400 |
| 2026-04-30 20:30 | 8.45 | 797 | 27400 (2009) | 157 (2014) | 3640 | 194 | 307 | 455 | 510 | 1340 | 3320 | 4810 | 9740 | 20400 |
| 2026-04-30 19:30 | 8.44 | 792 | 27400 (2009) | 157 (2014) | 3640 | 194 | 307 | 455 | 510 | 1340 | 3320 | 4810 | 9740 | 20400 |
| 2026-04-30 18:30 | 8.46 | 803 | 27400 (2009) | 157 (2014) | 3640 | 194 | 307 | 455 | 510 | 1340 | 3320 | 4810 | 9740 | 20400 |
| 2026-04-30 17:30 | 8.47 | 808 | 27400 (2009) | 157 (2014) | 3640 | 194 | 307 | 455 | 510 | 1340 | 3320 | 4810 | 9740 | 20400 |
| 2026-04-30 16:30 | 8.47 | 808 | 27400 (2009) | 157 (2014) | 3640 | 194 | 307 | 455 | 510 | 1340 | 3320 | 4810 | 9740 | 20400 |
| 2026-04-30 15:30 | 8.49 | 819 | 27400 (2009) | 157 (2014) | 3640 | 194 | 307 | 455 | 510 | 1340 | 3320 | 4810 | 9740 | 20400 |
| 2026-04-30 14:30 | 8.49 | 819 | 27400 (2009) | 157 (2014) | 3640 | 194 | 307 | 455 | 510 | 1340 | 3320 | 4810 | 9740 | 20400 |
| 2026-04-30 13:30 | 8.50 | 825 | 27400 (2009) | 157 (2014) | 3640 | 194 | 307 | 455 | 510 | 1340 | 3320 | 4810 | 9740 | 20400 |
| 2026-04-30 12:30 | 8.51 | 830 | 27400 (2009) | 157 (2014) | 3640 | 194 | 307 | 455 | 510 | 1340 | 3320 | 4810 | 9740 | 20400 |
| 2026-04-30 11:30 | 8.52 | 836 | 27400 (2009) | 157 (2014) | 3640 | 194 | 307 | 455 | 510 | 1340 | 3320 | 4810 | 9740 | 20400 |
| 2026-04-30 10:30 | 8.50 | 825 | 27400 (2009) | 157 (2014) | 3640 | 194 | 307 | 455 | 510 | 1340 | 3320 | 4810 | 9740 | 20400 |
| 2026-04-30 09:30 | 8.52 | 836 | 27400 (2009) | 157 (2014) | 3640 | 194 | 307 | 455 | 510 | 1340 | 3320 | 4810 | 9740 | 20400 |
| 2026-04-30 08:30 | 8.51 | 830 | 27400 (2009) | 157 (2014) | 3640 | 194 | 307 | 455 | 510 | 1340 | 3320 | 4810 | 9740 | 20400 |
| 2026-04-30 07:30 | 8.49 | 819 | 27400 (2009) | 157 (2014) | 3640 | 194 | 307 | 455 | 510 | 1340 | 3320 | 4810 | 9740 | 20400 |
| 2026-04-30 06:30 | 8.47 | 808 | 27400 (2009) | 157 (2014) | 3640 | 194 | 307 | 455 | 510 | 1340 | 3320 | 4810 | 9740 | 20400 |
| 2026-04-30 05:30 | 8.45 | 797 | 27400 (2009) | 157 (2014) | 3640 | 194 | 307 | 455 | 510 | 1340 | 3320 | 4810 | 9740 | 20400 |
| 2026-04-30 04:30 | 8.43 | 787 | 27400 (2009) | 157 (2014) | 3640 | 194 | 307 | 455 | 510 | 1340 | 3320 | 4810 | 9740 | 20400 |
| 2026-04-30 03:30 | 8.42 | 781 | 27400 (2009) | 157 (2014) | 3640 | 194 | 307 | 455 | 510 | 1340 | 3320 | 4810 | 9740 | 20400 |
| 2026-04-30 02:30 | 8.43 | 787 | 27400 (2009) | 157 (2014) | 3640 | 194 | 307 | 455 | 510 | 1340 | 3320 | 4810 | 9740 | 20400 |
| 2026-04-30 01:30 | 8.44 | 792 | 27400 (2009) | 157 (2014) | 3640 | 194 | 307 | 455 | 510 | 1340 | 3320 | 4810 | 9740 | 20400 |
| 2026-04-30 00:30 | 8.46 | 803 | 27400 (2009) | 157 (2014) | 3640 | 194 | 307 | 455 | 510 | 1340 | 3320 | 4810 | 9740 | 20400 |
| 2026-04-29 23:30 | 8.48 | 814 | 27400 (2009) | 157 (2014) | 3640 | 194 | 307 | 455 | 510 | 1340 | 3320 | 4810 | 9740 | 20400 |
| 2026-04-29 22:30 | 8.51 | 830 | 43400 (2021) | 175 (2014) | 3270 | 208 | 337 | 507 | 630 | 1330 | 2800 | 3550 | 7500 | 16000 |
| 2026-04-29 21:30 | 8.54 | 847 | 43400 (2021) | 175 (2014) | 3270 | 208 | 337 | 507 | 630 | 1330 | 2800 | 3550 | 7500 | 16000 |
| 2026-04-29 20:30 | 8.56 | 858 | 43400 (2021) | 175 (2014) | 3270 | 208 | 337 | 507 | 630 | 1330 | 2800 | 3550 | 7500 | 16000 |
| 2026-04-29 19:30 | 8.59 | 875 | 43400 (2021) | 175 (2014) | 3270 | 208 | 337 | 507 | 630 | 1330 | 2800 | 3550 | 7500 | 16000 |
| 2026-04-29 18:30 | 8.61 | 887 | 43400 (2021) | 175 (2014) | 3270 | 208 | 337 | 507 | 630 | 1330 | 2800 | 3550 | 7500 | 16000 |
| 2026-04-29 17:30 | 8.64 | 904 | 43400 (2021) | 175 (2014) | 3270 | 208 | 337 | 507 | 630 | 1330 | 2800 | 3550 | 7500 | 16000 |
| 2026-04-29 16:30 | 8.68 | 927 | 43400 (2021) | 175 (2014) | 3270 | 208 | 337 | 507 | 630 | 1330 | 2800 | 3550 | 7500 | 16000 |
| 2026-04-29 15:30 | 8.70 | 939 | 43400 (2021) | 175 (2014) | 3270 | 208 | 337 | 507 | 630 | 1330 | 2800 | 3550 | 7500 | 16000 |
| 2026-04-29 14:30 | 8.75 | 969 | 43400 (2021) | 175 (2014) | 3270 | 208 | 337 | 507 | 630 | 1330 | 2800 | 3550 | 7500 | 16000 |
| 2026-04-29 13:30 | 8.79 | 996 | 43400 (2021) | 175 (2014) | 3270 | 208 | 337 | 507 | 630 | 1330 | 2800 | 3550 | 7500 | 16000 |
| 2026-04-29 12:30 | 8.83 | 1030 | 43400 (2021) | 175 (2014) | 3270 | 208 | 337 | 507 | 630 | 1330 | 2800 | 3550 | 7500 | 16000 |
| 2026-04-29 11:30 | 8.87 | 1060 | 43400 (2021) | 175 (2014) | 3270 | 208 | 337 | 507 | 630 | 1330 | 2800 | 3550 | 7500 | 16000 |
| 2026-04-29 10:30 | 8.89 | 1070 | 43400 (2021) | 175 (2014) | 3270 | 208 | 337 | 507 | 630 | 1330 | 2800 | 3550 | 7500 | 16000 |
| 2026-04-29 09:30 | 8.92 | 1100 | 43400 (2021) | 175 (2014) | 3270 | 208 | 337 | 507 | 630 | 1330 | 2800 | 3550 | 7500 | 16000 |
| 2026-04-29 08:30 | 8.92 | 1100 | 43400 (2021) | 175 (2014) | 3270 | 208 | 337 | 507 | 630 | 1330 | 2800 | 3550 | 7500 | 16000 |
| 2026-04-29 07:30 | 8.90 | 1080 | 43400 (2021) | 175 (2014) | 3270 | 208 | 337 | 507 | 630 | 1330 | 2800 | 3550 | 7500 | 16000 |
| 2026-04-29 06:30 | 8.85 | 1040 | 43400 (2021) | 175 (2014) | 3270 | 208 | 337 | 507 | 630 | 1330 | 2800 | 3550 | 7500 | 16000 |
| 2026-04-29 05:30 | 8.75 | 969 | 43400 (2021) | 175 (2014) | 3270 | 208 | 337 | 507 | 630 | 1330 | 2800 | 3550 | 7500 | 16000 |
| 2026-04-29 04:30 | 8.65 | 910 | 43400 (2021) | 175 (2014) | 3270 | 208 | 337 | 507 | 630 | 1330 | 2800 | 3550 | 7500 | 16000 |
| 2026-04-29 03:30 | 8.58 | 869 | 43400 (2021) | 175 (2014) | 3270 | 208 | 337 | 507 | 630 | 1330 | 2800 | 3550 | 7500 | 16000 |
| 2026-04-29 02:30 | 8.55 | 852 | 43400 (2021) | 175 (2014) | 3270 | 208 | 337 | 507 | 630 | 1330 | 2800 | 3550 | 7500 | 16000 |
| 2026-04-29 01:30 | 8.53 | 841 | 43400 (2021) | 175 (2014) | 3270 | 208 | 337 | 507 | 630 | 1330 | 2800 | 3550 | 7500 | 16000 |
| 2026-04-29 00:30 | 8.52 | 836 | 43400 (2021) | 175 (2014) | 3270 | 208 | 337 | 507 | 630 | 1330 | 2800 | 3550 | 7500 | 16000 |
| 2026-04-28 23:30 | 8.52 | 836 | 43400 (2021) | 175 (2014) | 3270 | 208 | 337 | 507 | 630 | 1330 | 2800 | 3550 | 7500 | 16000 |
| 2026-04-28 22:30 | 8.53 | 841 | 38500 (1990) | 203 (1964) | 3500 | 208 | 290 | 538 | 592 | 1360 | 2700 | 4110 | 8970 | 21700 |
| 2026-04-28 21:30 | 8.54 | 847 | 38500 (1990) | 203 (1964) | 3500 | 208 | 290 | 538 | 592 | 1360 | 2700 | 4110 | 8970 | 21700 |
| 2026-04-28 20:30 | 8.54 | 847 | 38500 (1990) | 203 (1964) | 3500 | 208 | 290 | 538 | 592 | 1360 | 2700 | 4110 | 8970 | 21700 |
| 2026-04-28 19:30 | 8.55 | 852 | 38500 (1990) | 203 (1964) | 3500 | 208 | 290 | 538 | 592 | 1360 | 2700 | 4110 | 8970 | 21700 |
| 2026-04-28 18:30 | 8.55 | 852 | 38500 (1990) | 203 (1964) | 3500 | 208 | 290 | 538 | 592 | 1360 | 2700 | 4110 | 8970 | 21700 |
| 2026-04-28 17:30 | 8.57 | 864 | 38500 (1990) | 203 (1964) | 3500 | 208 | 290 | 538 | 592 | 1360 | 2700 | 4110 | 8970 | 21700 |
| 2026-04-28 16:30 | 8.59 | 875 | 38500 (1990) | 203 (1964) | 3500 | 208 | 290 | 538 | 592 | 1360 | 2700 | 4110 | 8970 | 21700 |
| 2026-04-28 15:30 | 8.58 | 869 | 38500 (1990) | 203 (1964) | 3500 | 208 | 290 | 538 | 592 | 1360 | 2700 | 4110 | 8970 | 21700 |
| 2026-04-28 14:30 | 8.61 | 887 | 38500 (1990) | 203 (1964) | 3500 | 208 | 290 | 538 | 592 | 1360 | 2700 | 4110 | 8970 | 21700 |
| 2026-04-28 13:30 | 8.64 | 904 | 38500 (1990) | 203 (1964) | 3500 | 208 | 290 | 538 | 592 | 1360 | 2700 | 4110 | 8970 | 21700 |
| 2026-04-28 12:30 | 8.66 | 916 | 38500 (1990) | 203 (1964) | 3500 | 208 | 290 | 538 | 592 | 1360 | 2700 | 4110 | 8970 | 21700 |
| 2026-04-28 11:30 | 8.69 | 933 | 38500 (1990) | 203 (1964) | 3500 | 208 | 290 | 538 | 592 | 1360 | 2700 | 4110 | 8970 | 21700 |
| 2026-04-28 10:30 | 8.72 | 951 | 38500 (1990) | 203 (1964) | 3500 | 208 | 290 | 538 | 592 | 1360 | 2700 | 4110 | 8970 | 21700 |
| 2026-04-28 09:30 | 8.74 | 963 | 38500 (1990) | 203 (1964) | 3500 | 208 | 290 | 538 | 592 | 1360 | 2700 | 4110 | 8970 | 21700 |
| 2026-04-28 08:30 | 8.77 | 981 | 38500 (1990) | 203 (1964) | 3500 | 208 | 290 | 538 | 592 | 1360 | 2700 | 4110 | 8970 | 21700 |
| 2026-04-28 07:30 | 8.80 | 1000 | 38500 (1990) | 203 (1964) | 3500 | 208 | 290 | 538 | 592 | 1360 | 2700 | 4110 | 8970 | 21700 |
| 2026-04-28 06:30 | 8.83 | 1030 | 38500 (1990) | 203 (1964) | 3500 | 208 | 290 | 538 | 592 | 1360 | 2700 | 4110 | 8970 | 21700 |
| 2026-04-28 05:30 | 8.86 | 1050 | 38500 (1990) | 203 (1964) | 3500 | 208 | 290 | 538 | 592 | 1360 | 2700 | 4110 | 8970 | 21700 |
| 2026-04-28 04:30 | 8.90 | 1080 | 38500 (1990) | 203 (1964) | 3500 | 208 | 290 | 538 | 592 | 1360 | 2700 | 4110 | 8970 | 21700 |
| 2026-04-28 03:30 | 8.94 | 1120 | 38500 (1990) | 203 (1964) | 3500 | 208 | 290 | 538 | 592 | 1360 | 2700 | 4110 | 8970 | 21700 |
| 2026-04-28 02:30 | 8.97 | 1140 | 38500 (1990) | 203 (1964) | 3500 | 208 | 290 | 538 | 592 | 1360 | 2700 | 4110 | 8970 | 21700 |
| 2026-04-28 01:30 | 9.01 | 1170 | 38500 (1990) | 203 (1964) | 3500 | 208 | 290 | 538 | 592 | 1360 | 2700 | 4110 | 8970 | 21700 |
| 2026-04-28 00:30 | 9.05 | 1210 | 38500 (1990) | 203 (1964) | 3500 | 208 | 290 | 538 | 592 | 1360 | 2700 | 4110 | 8970 | 21700 |
| 2026-04-27 23:30 | 9.09 | 1240 | 38500 (1990) | 203 (1964) | 3500 | 208 | 290 | 538 | 592 | 1360 | 2700 | 4110 | 8970 | 21700 |
A total of 175 rows are displayed for years 1962 through 2024.